createdAt,value
2018-05-16T00:01:02.788Z,7.53
2018-05-16T00:03:29.446Z,8.53
2018-05-16T00:05:56.762Z,7.93
2018-05-16T00:08:23.407Z,7.93
2018-05-16T00:10:50.093Z,8.87
2018-05-16T00:13:17.773Z,9.60
2018-05-16T00:15:45.226Z,9.73
2018-05-16T00:18:11.961Z,10.07
2018-05-16T00:20:39.861Z,9.17
2018-05-16T00:23:06.588Z,8.37
2018-05-16T00:25:33.270Z,9.33
2018-05-16T00:28:00.522Z,9.63
2018-05-16T00:30:27.185Z,9.07
2018-05-16T00:32:54.590Z,10.20
2018-05-16T00:35:21.253Z,9.03
2018-05-16T00:37:47.953Z,9.07
2018-05-16T00:40:15.341Z,7.93
2018-05-16T00:42:42.005Z,9.73
2018-05-16T00:45:08.819Z,10.50
2018-05-16T00:47:35.471Z,8.83
2018-05-16T00:50:02.168Z,11.03
2018-05-16T00:52:28.839Z,10.43
2018-05-16T00:54:55.511Z,10.17
2018-05-16T00:57:22.308Z,10.60
2018-05-16T00:59:48.958Z,10.33
2018-05-16T01:02:15.602Z,9.60
2018-05-16T01:04:42.321Z,10.77
2018-05-16T01:07:08.963Z,10.77
2018-05-16T01:09:35.652Z,9.83
2018-05-16T01:12:03.217Z,10.07
2018-05-16T01:14:30.122Z,11.60
2018-05-16T01:16:56.785Z,11.27
2018-05-16T01:19:23.471Z,11.73
2018-05-16T01:21:50.349Z,12.60
2018-05-16T01:24:17.830Z,12.50
2018-05-16T01:26:45.727Z,11.27
2018-05-16T01:29:12.403Z,10.60
2018-05-16T01:31:39.074Z,12.20
2018-05-16T01:34:06.500Z,11.67
2018-05-16T01:36:33.157Z,13.10
2018-05-16T01:38:59.840Z,12.67
2018-05-16T01:41:26.533Z,12.03
2018-05-16T01:43:54.654Z,11.60
2018-05-16T01:46:21.369Z,13.67
2018-05-16T01:49:01.043Z,12.93
2018-05-16T01:51:27.604Z,13.43
2018-05-16T01:53:54.257Z,12.13
2018-05-16T01:56:20.949Z,12.37
2018-05-16T01:58:47.646Z,13.80
2018-05-16T02:01:14.293Z,13.80
2018-05-16T02:03:41.784Z,15.13
2018-05-16T02:06:09.234Z,14.40
2018-05-16T02:08:35.919Z,13.37
2018-05-16T02:11:03.361Z,17.17
2018-05-16T02:13:30.078Z,17.77
2018-05-16T02:15:56.782Z,16.20
2018-05-16T02:18:24.172Z,14.60
2018-05-16T02:20:51.010Z,17.10
2018-05-16T02:23:17.668Z,14.77
2018-05-16T02:25:44.720Z,17.63
2018-05-16T02:28:11.398Z,16.27
2018-05-16T02:30:38.044Z,19.73
2018-05-16T02:33:12.650Z,17.00
2018-05-16T02:35:39.285Z,16.60
2018-05-16T02:38:05.932Z,17.60
2018-05-16T02:40:33.532Z,15.73
2018-05-16T02:43:00.239Z,16.53
2018-05-16T02:45:27.608Z,18.73
2018-05-16T02:47:54.219Z,16.60
2018-05-16T02:50:20.915Z,15.37
2018-05-16T02:52:47.606Z,17.30
2018-05-16T02:55:14.976Z,19.93
2018-05-16T02:57:41.639Z,17.23
2018-05-16T03:00:08.285Z,16.60
2018-05-16T03:02:36.648Z,14.60
2018-05-16T03:05:03.299Z,14.83
2018-05-16T03:07:30.196Z,14.93
2018-05-16T03:09:56.994Z,14.03
2018-05-16T03:12:23.680Z,13.03
2018-05-16T03:14:50.315Z,13.47
2018-05-16T03:17:17.751Z,13.80
2018-05-16T03:19:44.423Z,12.53
2018-05-16T03:22:11.094Z,13.70
2018-05-16T03:24:37.747Z,13.90
2018-05-16T03:27:04.483Z,14.40
2018-05-16T03:29:31.130Z,13.37
2018-05-16T03:31:57.805Z,12.80
2018-05-16T03:34:25.360Z,14.03
2018-05-16T03:36:52.015Z,13.60
2018-05-16T03:39:18.667Z,13.83
2018-05-16T03:41:45.331Z,15.87
2018-05-16T03:44:11.982Z,14.57
2018-05-16T03:46:38.633Z,19.63
2018-05-16T03:49:05.255Z,18.40
2018-05-16T03:51:32.777Z,18.40
2018-05-16T03:53:59.477Z,19.03
2018-05-16T03:56:26.150Z,14.63
2018-05-16T03:59:04.937Z,19.20
2018-05-16T04:01:43.764Z,15.90
2018-05-16T04:04:17.368Z,14.27
2018-05-16T04:06:44.893Z,16.57
2018-05-16T04:09:11.542Z,16.03
2018-05-16T04:11:38.180Z,16.80
2018-05-16T04:14:05.079Z,16.63
2018-05-16T04:16:31.747Z,14.87
2018-05-16T04:18:58.448Z,18.43
2018-05-16T04:21:25.880Z,17.87
2018-05-16T04:23:52.519Z,17.53
2018-05-16T04:26:19.939Z,16.63
2018-05-16T04:28:46.678Z,16.53
2018-05-16T04:31:14.118Z,17.97
2018-05-16T04:33:40.767Z,14.33
2018-05-16T04:36:07.408Z,15.93
2018-05-16T04:38:34.070Z,15.43
2018-05-16T04:41:00.891Z,17.43
2018-05-16T04:43:27.556Z,15.13
2018-05-16T04:45:54.942Z,15.77
2018-05-16T04:48:21.656Z,16.87
2018-05-16T04:50:49.019Z,19.30
2018-05-16T04:53:16.380Z,18.53
2018-05-16T04:55:43.041Z,17.17
2018-05-16T04:58:09.905Z,18.73
2018-05-16T05:00:36.542Z,18.80
2018-05-16T05:03:03.195Z,17.27
2018-05-16T05:05:30.712Z,17.50
2018-05-16T05:07:57.356Z,18.17
2018-05-16T05:10:24.523Z,18.87
2018-05-16T05:12:51.192Z,19.10
2018-05-16T05:15:17.845Z,18.90
2018-05-16T05:17:44.574Z,20.73
2018-05-16T05:20:11.189Z,17.30
2018-05-16T05:22:39.328Z,17.43
2018-05-16T05:25:05.965Z,15.70
2018-05-16T05:27:32.648Z,15.70
2018-05-16T05:29:59.238Z,15.70
2018-05-16T05:32:25.882Z,14.57
2018-05-16T05:34:52.512Z,14.60
2018-05-16T05:37:19.210Z,14.17
2018-05-16T05:39:46.615Z,15.57
2018-05-16T05:42:13.253Z,19.00
2018-05-16T05:44:39.941Z,17.63
2018-05-16T05:47:06.585Z,15.43
2018-05-16T05:49:34.007Z,14.73
2018-05-16T05:52:00.674Z,15.70
2018-05-16T05:54:28.114Z,14.67
2018-05-16T05:56:54.737Z,20.63
2018-05-16T05:59:21.408Z,19.20
2018-05-16T06:01:48.129Z,17.47
2018-05-16T06:04:22.531Z,17.23
2018-05-16T06:06:49.207Z,17.77
2018-05-16T06:09:15.901Z,17.17
2018-05-16T06:11:42.605Z,17.77
2018-05-16T06:14:10.006Z,17.13
2018-05-16T06:16:36.650Z,16.80
2018-05-16T06:19:03.469Z,16.53
2018-05-16T06:21:30.103Z,17.67
2018-05-16T06:23:56.751Z,17.57
2018-05-16T06:26:23.507Z,17.20
2018-05-16T06:28:50.181Z,17.03
2018-05-16T06:31:17.609Z,17.10
2018-05-16T06:33:44.252Z,18.50
2018-05-16T06:36:10.894Z,17.47
2018-05-16T06:38:37.578Z,17.00
2018-05-16T06:41:04.250Z,17.67
2018-05-16T06:43:30.894Z,16.30
2018-05-16T06:45:57.619Z,17.43
2018-05-16T06:48:24.937Z,16.77
2018-05-16T06:50:52.404Z,17.33
2018-05-16T06:53:19.146Z,16.57
2018-05-16T06:55:45.896Z,17.97
2018-05-16T06:58:12.538Z,16.20
2018-05-16T07:00:39.264Z,16.90
2018-05-16T07:03:05.967Z,16.93
2018-05-16T07:05:32.718Z,17.57
2018-05-16T07:07:59.400Z,18.10
2018-05-16T07:10:26.123Z,16.83
2018-05-16T07:12:52.984Z,18.97
2018-05-16T07:15:19.685Z,18.97
2018-05-16T07:17:47.041Z,18.27
2018-05-16T07:20:13.744Z,18.87
2018-05-16T07:22:40.362Z,17.97
2018-05-16T07:25:07.022Z,17.57
2018-05-16T07:27:33.679Z,18.63
2018-05-16T07:30:01.119Z,18.63
2018-05-16T07:32:28.523Z,16.83
2018-05-16T07:34:55.174Z,18.77
2018-05-16T07:37:22.170Z,18.47
2018-05-16T07:39:48.815Z,17.40
2018-05-16T07:42:16.181Z,19.17
2018-05-16T07:44:43.567Z,16.90
2018-05-16T07:47:10.221Z,18.97
2018-05-16T07:49:36.874Z,18.87
2018-05-16T07:52:03.669Z,18.30
2018-05-16T07:54:30.369Z,17.83
2018-05-16T07:56:56.986Z,17.73
2018-05-16T07:59:23.656Z,16.90
2018-05-16T08:01:51.090Z,15.87
2018-05-16T08:04:17.776Z,14.90
2018-05-16T08:06:44.412Z,14.60
2018-05-16T08:09:11.055Z,13.43
2018-05-16T08:11:37.918Z,12.97
2018-05-16T08:14:04.567Z,13.57
2018-05-16T08:16:31.243Z,13.50
2018-05-16T08:18:58.692Z,14.60
2018-05-16T08:21:25.814Z,15.13
2018-05-16T08:23:52.441Z,13.27
2018-05-16T08:26:19.069Z,13.13
2018-05-16T08:28:45.899Z,13.87
2018-05-16T08:31:12.571Z,13.70
2018-05-16T08:33:39.476Z,13.43
2018-05-16T08:36:06.535Z,14.20
2018-05-16T08:38:33.166Z,14.67
2018-05-16T08:40:59.810Z,12.53
2018-05-16T08:43:26.453Z,14.10
2018-05-16T08:45:53.104Z,13.70
2018-05-16T08:48:19.772Z,13.23
2018-05-16T08:50:47.137Z,12.70
2018-05-16T08:53:14.556Z,12.67
2018-05-16T08:55:41.215Z,12.37
2018-05-16T08:58:08.654Z,12.90
2018-05-16T09:00:36.932Z,12.97
2018-05-16T09:03:03.572Z,12.70
2018-05-16T09:05:30.327Z,12.97
2018-05-16T09:07:58.851Z,14.07
2018-05-16T09:10:26.103Z,13.53
2018-05-16T09:12:52.735Z,12.07
2018-05-16T09:15:19.388Z,12.00
2018-05-16T09:17:46.052Z,11.57
2018-05-16T09:20:13.130Z,11.50
2018-05-16T09:22:41.955Z,10.50
2018-05-16T09:25:08.691Z,11.07
2018-05-16T09:27:37.372Z,10.23
2018-05-16T09:30:04.631Z,10.50
2018-05-16T09:32:31.684Z,12.10
2018-05-16T09:34:58.971Z,11.30
2018-05-16T09:37:26.695Z,12.50
2018-05-16T09:39:53.605Z,12.97
2018-05-16T09:42:20.686Z,12.03
2018-05-16T09:44:48.553Z,12.70
2018-05-16T09:47:15.497Z,11.43
2018-05-16T09:49:42.607Z,11.27
2018-05-16T09:52:10.292Z,12.07
2018-05-16T09:54:38.176Z,11.70
2018-05-16T09:57:06.758Z,12.50
2018-05-16T09:59:33.704Z,11.60
2018-05-16T10:02:01.159Z,13.33
2018-05-16T10:04:28.180Z,12.10
2018-05-16T10:06:55.151Z,10.80
2018-05-16T10:09:25.099Z,11.40
2018-05-16T10:11:52.015Z,11.23
2018-05-16T10:14:19.467Z,11.70
2018-05-16T10:16:46.718Z,12.07
2018-05-16T10:19:14.995Z,11.73
2018-05-16T10:21:43.035Z,11.83
2018-05-16T10:24:09.936Z,11.73
2018-05-16T10:26:37.364Z,11.43
2018-05-16T10:29:05.233Z,12.67
2018-05-16T10:31:32.271Z,11.40
2018-05-16T10:33:59.168Z,11.20
2018-05-16T10:36:25.963Z,12.03
2018-05-16T10:38:54.136Z,11.07
2018-05-16T10:41:21.201Z,12.23
2018-05-16T10:43:48.158Z,11.97
2018-05-16T10:46:15.177Z,12.43
2018-05-16T10:48:43.243Z,11.80
2018-05-16T10:51:10.677Z,12.10
2018-05-16T10:53:37.269Z,11.73
2018-05-16T10:56:04.042Z,11.43
2018-05-16T10:58:30.710Z,11.90
2018-05-16T11:00:57.490Z,12.17
2018-05-16T11:03:24.191Z,10.73
2018-05-16T11:05:51.567Z,11.77
2018-05-16T11:08:18.263Z,11.73
2018-05-16T11:10:45.959Z,12.57
2018-05-16T11:13:12.627Z,11.43
2018-05-16T11:15:39.467Z,11.97
2018-05-16T11:18:06.099Z,12.40
2018-05-16T11:20:32.883Z,13.20
2018-05-16T11:23:00.289Z,11.93
2018-05-16T11:25:26.954Z,12.20
2018-05-16T11:27:53.749Z,11.13
2018-05-16T11:30:20.492Z,12.33
2018-05-16T11:32:47.132Z,12.83
2018-05-16T11:35:13.823Z,11.80
2018-05-16T11:37:41.491Z,12.23
2018-05-16T11:40:08.111Z,12.80
2018-05-16T11:42:34.739Z,12.80
2018-05-16T11:45:01.428Z,12.50
2018-05-16T11:47:28.051Z,12.60
2018-05-16T11:49:55.438Z,13.03
2018-05-16T11:52:22.066Z,13.43
2018-05-16T11:54:48.754Z,13.10
2018-05-16T11:57:15.553Z,13.10
2018-05-16T11:59:42.160Z,13.87
2018-05-16T12:02:09.564Z,13.87
2018-05-16T12:04:36.406Z,13.17
2018-05-16T12:07:03.109Z,13.40
2018-05-16T12:09:30.485Z,14.47
2018-05-16T12:11:57.181Z,13.77
2018-05-16T12:14:24.677Z,14.27
2018-05-16T12:16:51.533Z,15.00
2018-05-16T12:19:18.204Z,14.27
2018-05-16T12:21:45.681Z,15.57
2018-05-16T12:24:12.319Z,13.90
2018-05-16T12:26:39.050Z,13.77
2018-05-16T12:29:05.806Z,13.30
2018-05-16T12:31:32.439Z,13.80
2018-05-16T12:33:59.123Z,13.67
2018-05-16T12:36:25.813Z,15.67
2018-05-16T12:38:52.454Z,14.30
2018-05-16T12:41:19.176Z,12.80
2018-05-16T12:43:45.921Z,13.17
2018-05-16T12:46:13.302Z,13.10
2018-05-16T12:48:40.367Z,12.77
2018-05-16T12:51:07.080Z,14.17
2018-05-16T12:53:33.843Z,12.83
2018-05-16T12:56:00.495Z,13.77
2018-05-16T12:58:27.073Z,14.10
2018-05-16T13:00:53.702Z,13.20
2018-05-16T13:03:20.219Z,12.60
2018-05-16T13:05:46.772Z,12.53
2018-05-16T13:08:13.323Z,12.03
2018-05-16T13:10:39.976Z,12.10
2018-05-16T13:13:06.765Z,10.97
2018-05-16T13:15:33.317Z,11.40
2018-05-16T13:17:59.866Z,11.10
2018-05-16T13:20:27.369Z,12.00
2018-05-16T13:22:53.978Z,11.47
2018-05-16T13:25:21.318Z,10.97
2018-05-16T13:27:47.951Z,12.53
2018-05-16T13:30:14.760Z,11.57
2018-05-16T13:32:41.320Z,11.60
2018-05-16T13:35:07.852Z,11.43
2018-05-16T13:37:34.429Z,11.23
2018-05-16T13:40:00.963Z,10.87
2018-05-16T13:42:27.619Z,10.93
2018-05-16T13:44:54.199Z,11.53
2018-05-16T13:47:20.996Z,10.73
2018-05-16T13:49:48.277Z,10.57
2018-05-16T13:52:14.885Z,10.77
2018-05-16T13:54:41.477Z,10.23
2018-05-16T13:57:08.048Z,10.03
2018-05-16T13:59:35.412Z,10.87
2018-05-16T14:02:02.975Z,9.80
2018-05-16T14:04:30.267Z,11.30
2018-05-16T14:06:56.858Z,11.40
2018-05-16T14:09:24.147Z,10.63
2018-05-16T14:11:50.826Z,11.00
2018-05-16T14:14:19.049Z,9.97
2018-05-16T14:16:45.599Z,10.37
2018-05-16T14:19:12.167Z,11.40
2018-05-16T14:21:38.962Z,10.53
2018-05-16T14:24:05.636Z,10.70
2018-05-16T14:26:32.337Z,10.93
2018-05-16T14:28:58.860Z,10.27
2018-05-16T14:31:25.409Z,10.93
2018-05-16T14:33:51.974Z,9.97
2018-05-16T14:36:18.563Z,10.83
2018-05-16T14:38:45.831Z,11.10
2018-05-16T14:41:12.405Z,10.80
2018-05-16T14:43:40.435Z,12.73
2018-05-16T14:46:07.054Z,11.47
2018-05-16T14:48:34.368Z,13.10
2018-05-16T14:51:01.738Z,11.60
2018-05-16T14:53:28.295Z,13.07
2018-05-16T14:55:56.479Z,12.83
2018-05-16T14:58:23.972Z,12.40
2018-05-16T15:00:50.564Z,13.33
2018-05-16T15:03:17.925Z,12.43
2018-05-16T15:05:44.507Z,12.77
2018-05-16T15:08:11.047Z,13.20
2018-05-16T15:10:37.702Z,13.57
2018-05-16T15:13:04.266Z,14.90
2018-05-16T15:15:31.560Z,13.97
2018-05-16T15:17:58.144Z,13.80
2018-05-16T15:20:24.691Z,14.30
2018-05-16T15:22:52.099Z,14.40
2018-05-16T15:25:18.687Z,14.47
2018-05-16T15:27:46.102Z,14.30
2018-05-16T15:30:12.701Z,15.43
2018-05-16T15:32:39.240Z,15.27
2018-05-16T15:35:05.830Z,14.40
2018-05-16T15:37:32.445Z,13.23
2018-05-16T15:39:59.091Z,11.43
2018-05-16T15:42:25.702Z,10.73
2018-05-16T15:44:52.248Z,11.10
2018-05-16T15:47:18.834Z,11.47
2018-05-16T15:49:46.319Z,11.27
2018-05-16T15:52:12.886Z,11.67
2018-05-16T15:54:39.432Z,10.60
2018-05-16T15:57:06.019Z,11.50
2018-05-16T15:59:32.612Z,10.17
2018-05-16T16:01:59.272Z,9.67
2018-05-16T16:04:25.979Z,10.83
2018-05-16T16:06:52.548Z,8.87
2018-05-16T16:09:19.419Z,8.47
2018-05-16T16:11:45.981Z,7.50
2018-05-16T16:14:12.503Z,8.03
2018-05-16T16:16:39.227Z,8.37
2018-05-16T16:19:05.808Z,8.23
2018-05-16T16:21:32.373Z,7.73
2018-05-16T16:23:59.691Z,7.93
2018-05-16T16:26:26.258Z,7.73
2018-05-16T16:28:53.559Z,6.63
2018-05-16T16:31:20.281Z,6.57
2018-05-16T16:33:46.859Z,6.73
2018-05-16T16:36:13.394Z,6.50
2018-05-16T16:38:40.357Z,6.53
2018-05-16T16:41:07.671Z,7.47
2018-05-16T16:43:34.227Z,6.77
2018-05-16T16:46:01.031Z,6.90
2018-05-16T16:48:27.585Z,7.83
2018-05-16T16:50:54.275Z,7.20
2018-05-16T16:53:21.625Z,6.67
2018-05-16T16:55:48.926Z,7.43
2018-05-16T16:58:15.482Z,7.20
2018-05-16T17:00:42.064Z,7.20
2018-05-16T17:03:08.618Z,7.73
2018-05-16T17:05:35.429Z,7.53
2018-05-16T17:08:02.782Z,7.63
2018-05-16T17:10:30.082Z,6.83
2018-05-16T17:12:56.639Z,7.57
2018-05-16T17:15:23.546Z,7.60
2018-05-16T17:17:50.075Z,7.60
2018-05-16T17:20:16.739Z,7.50
2018-05-16T17:22:43.293Z,7.27
2018-05-16T17:25:11.318Z,7.87
2018-05-16T17:27:37.989Z,8.53
2018-05-16T17:30:04.594Z,7.87
2018-05-16T17:32:31.174Z,9.10
2018-05-16T17:34:57.805Z,8.60
2018-05-16T17:37:24.362Z,9.00
2018-05-16T17:39:51.670Z,9.20
2018-05-16T17:42:18.250Z,9.20
2018-05-16T17:44:44.840Z,9.47
2018-05-16T17:47:11.423Z,9.33
2018-05-16T17:49:37.978Z,10.63
2018-05-16T17:52:05.311Z,9.43
2018-05-16T17:54:31.856Z,10.13
2018-05-16T17:56:59.217Z,10.33
2018-05-16T17:59:26.502Z,10.13
2018-05-16T18:01:53.050Z,9.70
2018-05-16T18:04:19.628Z,9.77
2018-05-16T18:06:46.157Z,10.30
2018-05-16T18:09:12.708Z,9.73
2018-05-16T18:11:40.026Z,10.47
2018-05-16T18:14:13.701Z,9.37
2018-05-16T18:16:50.455Z,9.97
2018-05-16T18:19:18.143Z,9.33
2018-05-16T18:21:44.845Z,10.63
2018-05-16T18:24:11.449Z,8.87
2018-05-16T18:26:38.155Z,8.77
2018-05-16T18:29:04.684Z,8.60
2018-05-16T18:31:31.357Z,8.63
2018-05-16T18:33:58.341Z,8.80
2018-05-16T18:36:25.652Z,9.17
2018-05-16T18:38:52.209Z,9.63
2018-05-16T18:41:20.429Z,9.83
2018-05-16T18:43:46.978Z,9.57
2018-05-16T18:46:13.552Z,8.40
2018-05-16T18:48:40.201Z,8.27
2018-05-16T18:51:06.752Z,8.27
2018-05-16T18:53:34.059Z,7.83
2018-05-16T18:56:00.711Z,7.73
2018-05-16T18:58:27.216Z,8.00
2018-05-16T19:00:53.794Z,7.37
2018-05-16T19:03:21.163Z,7.47
2018-05-16T19:05:48.645Z,7.63
2018-05-16T19:08:15.166Z,7.27
2018-05-16T19:10:41.742Z,8.93
2018-05-16T19:13:08.432Z,7.67
2018-05-16T19:15:35.789Z,7.40
2018-05-16T19:18:02.368Z,6.70
2018-05-16T19:20:28.891Z,7.20
2018-05-16T19:22:55.592Z,6.90
2018-05-16T19:25:22.906Z,8.03
2018-05-16T19:27:49.467Z,7.00
2018-05-16T19:30:16.816Z,6.80
2018-05-16T19:32:43.478Z,8.03
2018-05-16T19:35:11.311Z,8.03
2018-05-16T19:37:37.979Z,7.47
2018-05-16T19:40:05.291Z,7.17
2018-05-16T19:42:31.922Z,8.00
2018-05-16T19:44:58.460Z,7.77
2018-05-16T19:47:25.036Z,8.07
2018-05-16T19:49:52.368Z,8.60
2018-05-16T19:52:18.928Z,7.93
2018-05-16T19:54:46.268Z,7.43
2018-05-16T19:57:13.595Z,8.90
2018-05-16T19:59:40.210Z,8.57
2018-05-16T20:02:06.915Z,7.53
2018-05-16T20:04:33.522Z,7.63
2018-05-16T20:07:00.108Z,7.57
2018-05-16T20:09:26.684Z,7.00
2018-05-16T20:11:53.368Z,7.07
2018-05-16T20:14:20.676Z,7.23
2018-05-16T20:16:47.238Z,7.60
2018-05-16T20:19:14.553Z,7.87
2018-05-16T20:21:41.123Z,6.80
2018-05-16T20:24:07.734Z,7.03
2018-05-16T20:26:34.311Z,7.93
2018-05-16T20:29:01.585Z,7.60
2018-05-16T20:31:28.152Z,8.03
2018-05-16T20:33:54.807Z,7.80
2018-05-16T20:36:21.418Z,6.80
2018-05-16T20:38:47.962Z,6.47
2018-05-16T20:41:14.966Z,6.30
2018-05-16T20:43:41.520Z,6.63
2018-05-16T20:46:08.064Z,7.30
2018-05-16T20:48:34.639Z,7.27
2018-05-16T20:51:01.304Z,6.87
2018-05-16T20:53:27.894Z,6.20
2018-05-16T20:55:54.415Z,6.63
2018-05-16T20:58:21.455Z,6.80
2018-05-16T21:00:48.010Z,5.60
2018-05-16T21:03:14.801Z,6.37
2018-05-16T21:05:41.394Z,6.13
2018-05-16T21:08:08.011Z,6.90
2018-05-16T21:10:34.556Z,6.30
2018-05-16T21:13:01.090Z,8.37
2018-05-16T21:15:27.884Z,6.67
2018-05-16T21:17:55.232Z,6.23
2018-05-16T21:20:21.897Z,7.27
2018-05-16T21:22:48.456Z,5.73
2018-05-16T21:25:15.053Z,5.80
2018-05-16T21:27:42.370Z,5.67
2018-05-16T21:30:08.909Z,6.07
2018-05-16T21:32:35.511Z,5.73
2018-05-16T21:35:02.078Z,6.23
2018-05-16T21:37:28.619Z,6.23
2018-05-16T21:39:56.700Z,6.47
2018-05-16T21:42:23.288Z,5.97
2018-05-16T21:44:49.876Z,5.53
2018-05-16T21:47:16.438Z,6.27
2018-05-16T21:49:43.028Z,6.50
2018-05-16T21:52:09.571Z,6.30
2018-05-16T21:54:36.231Z,6.33
2018-05-16T21:57:03.530Z,6.20
2018-05-16T21:59:30.123Z,7.20
2018-05-16T22:01:57.415Z,5.67
2018-05-16T22:04:23.994Z,6.13
2018-05-16T22:06:50.650Z,6.03
2018-05-16T22:09:17.998Z,6.30
2018-05-16T22:11:45.356Z,4.67
2018-05-16T22:14:11.898Z,6.30
2018-05-16T22:16:39.221Z,5.13
2018-05-16T22:19:05.886Z,5.10
2018-05-16T22:21:33.173Z,5.43
2018-05-16T22:23:59.760Z,5.80
2018-05-16T22:26:27.058Z,5.77
2018-05-16T22:28:53.637Z,6.20
2018-05-16T22:31:26.152Z,6.00
2018-05-16T22:33:58.882Z,6.47
2018-05-16T22:36:31.552Z,5.37
2018-05-16T22:39:04.922Z,6.10
2018-05-16T22:41:37.438Z,6.13
2018-05-16T22:47:07.610Z,6.10
2018-05-16T22:49:34.184Z,5.27
2018-05-16T22:52:00.800Z,5.47
2018-05-16T22:54:27.392Z,6.27
2018-05-16T22:56:54.903Z,5.03
2018-05-16T22:59:21.464Z,5.93
2018-05-16T23:01:48.019Z,6.50
2018-05-16T23:04:14.585Z,6.57
2018-05-16T23:06:41.873Z,6.50
2018-05-16T23:09:08.462Z,5.60
2018-05-16T23:11:35.112Z,5.37
2018-05-16T23:14:01.711Z,6.50
2018-05-16T23:16:28.290Z,7.17
2018-05-16T23:18:54.935Z,5.17
2018-05-16T23:21:21.512Z,5.57
2018-05-16T23:23:48.077Z,5.97
2018-05-16T23:26:14.683Z,5.10
2018-05-16T23:28:41.228Z,6.50
2018-05-16T23:31:07.835Z,5.97
2018-05-16T23:33:34.373Z,6.47
2018-05-16T23:36:01.278Z,5.67
2018-05-16T23:38:28.637Z,5.33
2018-05-16T23:40:55.187Z,5.43
2018-05-16T23:43:21.782Z,5.50
2018-05-16T23:45:49.880Z,5.63
2018-05-16T23:48:16.469Z,6.97
2018-05-16T23:50:43.943Z,5.80
2018-05-16T23:53:10.581Z,5.53
2018-05-16T23:55:37.133Z,6.90
2018-05-16T23:58:03.766Z,5.43
